createdAt,value
2023-05-05T00:01:16.833Z,67.83
2023-05-05T00:04:22.838Z,66.57
2023-05-05T00:07:25.385Z,65.35
2023-05-05T00:10:28.272Z,64.52
2023-05-05T00:13:30.962Z,64.04
2023-05-05T00:16:33.709Z,65.99
2023-05-05T00:19:36.449Z,65.53
2023-05-05T00:22:39.185Z,65.28
2023-05-05T00:25:41.715Z,65.12
2023-05-05T00:28:44.654Z,64.21
2023-05-05T00:31:47.149Z,63.66
2023-05-05T00:34:49.866Z,64.74
2023-05-05T00:37:52.235Z,65.10
2023-05-05T00:40:55.105Z,64.84
2023-05-05T00:43:57.560Z,64.33
2023-05-05T00:47:00.387Z,64.23
2023-05-05T00:50:21.602Z,64.48
2023-05-05T00:53:26.738Z,65.07
2023-05-05T00:56:29.214Z,65.62
2023-05-05T00:59:33.978Z,65.59
2023-05-05T01:02:36.778Z,66.49
2023-05-05T01:06:11.150Z,66.26
2023-05-05T01:09:42.666Z,65.96
2023-05-05T01:13:19.457Z,67.01
2023-05-05T01:16:26.006Z,67.66
2023-05-05T01:19:49.727Z,67.88
2023-05-05T01:22:58.675Z,67.63
2023-05-05T01:26:39.396Z,67.84
2023-05-05T01:30:11.506Z,69.21
2023-05-05T01:33:16.286Z,68.83
2023-05-05T01:36:24.603Z,69.82
2023-05-05T01:39:31.965Z,68.90
2023-05-05T01:42:35.656Z,69.99
2023-05-05T01:45:39.599Z,71.26
2023-05-05T01:48:43.577Z,70.71
2023-05-05T01:51:47.560Z,70.96
2023-05-05T01:54:51.055Z,72.22
2023-05-05T01:57:55.339Z,71.75
2023-05-05T02:00:58.946Z,69.37
2023-05-05T02:04:03.796Z,70.28
2023-05-05T02:07:06.994Z,71.28
2023-05-05T02:10:10.894Z,70.51
2023-05-05T02:13:13.527Z,70.81
2023-05-05T02:16:17.292Z,71.15
2023-05-05T02:19:21.868Z,70.40
2023-05-05T02:22:25.410Z,70.88
2023-05-05T02:25:35.185Z,70.64
2023-05-05T02:29:07.687Z,70.71
2023-05-05T02:32:15.037Z,71.40
2023-05-05T02:35:21.486Z,70.72
2023-05-05T02:38:27.821Z,71.41
2023-05-05T02:41:36.681Z,71.86
2023-05-05T02:44:45.918Z,71.07
2023-05-05T02:47:49.772Z,71.74
2023-05-05T02:50:52.579Z,70.71
2023-05-05T02:54:06.896Z,70.84
2023-05-05T02:57:11.690Z,71.40
2023-05-05T03:00:40.505Z,72.38
2023-05-05T03:04:07.817Z,73.24
2023-05-05T03:07:26.739Z,72.94
2023-05-05T03:10:56.326Z,72.91
2023-05-05T03:14:09.268Z,73.92
2023-05-05T03:17:13.937Z,73.16
2023-05-05T03:20:17.307Z,72.39
2023-05-05T03:23:23.428Z,72.76
2023-05-05T03:26:31.711Z,72.34
2023-05-05T03:29:34.244Z,73.51
2023-05-05T03:32:38.642Z,74.75
2023-05-05T03:35:41.071Z,73.68
2023-05-05T03:38:46.817Z,73.46
2023-05-05T03:41:49.572Z,73.49
2023-05-05T03:44:54.641Z,73.33
2023-05-05T03:47:58.566Z,75.22
2023-05-05T03:51:01.333Z,75.29
2023-05-05T03:54:06.696Z,74.78
2023-05-05T03:57:09.725Z,75.72
2023-05-05T04:00:12.721Z,75.13
2023-05-05T04:03:18.529Z,74.65
2023-05-05T04:06:23.967Z,74.08
2023-05-05T04:09:26.843Z,74.20
2023-05-05T04:12:30.290Z,76.51
2023-05-05T04:15:33.474Z,77.12
2023-05-05T04:18:37.490Z,76.18
2023-05-05T04:21:40.853Z,75.60
2023-05-05T04:24:44.590Z,73.89
2023-05-05T04:27:48.576Z,75.09
2023-05-05T04:30:51.758Z,74.23
2023-05-05T04:33:54.259Z,73.20
2023-05-05T04:36:57.411Z,73.16
2023-05-05T04:40:00.073Z,72.46
2023-05-05T04:43:04.123Z,71.83
2023-05-05T04:46:08.476Z,74.00
2023-05-05T04:49:13.888Z,73.21
2023-05-05T04:52:16.359Z,75.39
2023-05-05T04:55:19.215Z,74.95
2023-05-05T04:58:21.761Z,72.71
2023-05-05T05:01:24.601Z,70.85
2023-05-05T05:04:27.612Z,70.62
2023-05-05T05:07:30.602Z,68.50
2023-05-05T05:10:33.068Z,68.23
2023-05-05T05:13:35.809Z,69.62
2023-05-05T05:16:38.327Z,65.45
2023-05-05T05:19:41.766Z,62.68
2023-05-05T05:22:44.249Z,63.95
2023-05-05T05:25:51.493Z,61.60
2023-05-05T05:28:55.943Z,60.38
2023-05-05T05:31:59.014Z,61.20
2023-05-05T05:35:01.592Z,59.66
2023-05-05T05:38:04.538Z,62.65
2023-05-05T05:41:10.247Z,61.19
2023-05-05T05:44:14.905Z,55.28
2023-05-05T05:47:17.349Z,55.66
2023-05-05T05:50:23.508Z,54.17
2023-05-05T05:53:26.371Z,53.80
2023-05-05T05:56:30.298Z,56.22
2023-05-05T05:59:33.272Z,55.18
2023-05-05T06:02:36.405Z,49.74
2023-05-05T06:05:39.092Z,50.37
2023-05-05T06:08:42.501Z,50.07
2023-05-05T06:11:44.919Z,49.93
2023-05-05T06:14:47.841Z,50.04
2023-05-05T06:17:50.287Z,50.10
2023-05-05T06:20:53.183Z,48.15
2023-05-05T06:23:58.698Z,48.00
2023-05-05T06:27:02.733Z,48.47
2023-05-05T06:30:07.408Z,47.86
2023-05-05T06:33:10.371Z,50.26
2023-05-05T06:36:12.816Z,50.67
2023-05-05T06:39:16.132Z,48.64
2023-05-05T06:42:18.688Z,48.82
2023-05-05T06:45:22.495Z,48.36
2023-05-05T06:48:24.937Z,48.73
2023-05-05T06:51:27.912Z,47.69
2023-05-05T06:54:30.323Z,49.29
2023-05-05T06:57:33.132Z,47.47
2023-05-05T07:00:35.501Z,47.29
2023-05-05T07:03:38.464Z,47.82
2023-05-05T07:06:41.040Z,47.57
2023-05-05T07:09:45.263Z,47.10
2023-05-05T07:12:49.369Z,47.35
2023-05-05T07:15:52.133Z,45.14
2023-05-05T07:18:54.615Z,45.17
2023-05-05T07:21:57.556Z,46.47
2023-05-05T07:25:00.008Z,43.04
2023-05-05T07:28:03.118Z,43.27
2023-05-05T07:31:05.703Z,45.01
2023-05-05T07:34:09.328Z,43.46
2023-05-05T07:37:11.800Z,43.25
2023-05-05T07:40:14.634Z,43.45
2023-05-05T07:43:16.976Z,43.35
2023-05-05T07:46:20.157Z,43.88
2023-05-05T07:49:22.695Z,43.19
2023-05-05T07:52:43.310Z,41.44
2023-05-05T07:55:47.402Z,38.65
2023-05-05T07:58:50.246Z,40.09
2023-05-05T08:01:54.334Z,39.84
2023-05-05T08:04:57.749Z,39.39
2023-05-05T08:08:00.208Z,39.57
2023-05-05T08:11:03.545Z,38.84
2023-05-05T08:14:05.964Z,39.55
2023-05-05T08:17:09.083Z,40.18
2023-05-05T08:20:12.160Z,39.64
2023-05-05T08:23:14.856Z,40.01
2023-05-05T08:26:17.478Z,40.85
2023-05-05T08:29:20.222Z,39.61
2023-05-05T08:32:22.677Z,40.55
2023-05-05T08:35:25.625Z,41.64
2023-05-05T08:38:28.205Z,41.61
2023-05-05T08:41:31.178Z,42.71
2023-05-05T08:44:34.065Z,41.72
2023-05-05T08:47:37.748Z,42.53
2023-05-05T08:50:40.816Z,44.26
2023-05-05T08:53:56.078Z,42.83
2023-05-05T08:57:02.164Z,42.64
2023-05-05T09:00:05.666Z,43.04
2023-05-05T09:03:08.256Z,43.13
2023-05-05T09:06:11.581Z,42.50
2023-05-05T09:09:14.559Z,42.62
2023-05-05T09:12:18.820Z,42.74
2023-05-05T09:15:21.262Z,43.35
2023-05-05T09:18:24.075Z,44.11
2023-05-05T09:21:26.720Z,44.97
2023-05-05T09:24:29.536Z,46.43
2023-05-05T09:27:36.405Z,44.20
2023-05-05T09:30:40.709Z,41.89
2023-05-05T09:33:43.884Z,42.20
2023-05-05T09:36:48.201Z,41.89
2023-05-05T09:39:55.160Z,41.70
2023-05-05T09:43:03.134Z,39.38
2023-05-05T09:46:07.836Z,40.21
2023-05-05T09:49:18.697Z,39.79
2023-05-05T09:52:21.263Z,38.46
2023-05-05T09:55:24.903Z,40.24
2023-05-05T09:58:29.035Z,42.11
2023-05-05T10:01:31.803Z,40.19
2023-05-05T10:07:51.007Z,39.68
2023-05-05T10:11:07.415Z,39.12
2023-05-05T10:14:14.331Z,38.85
2023-05-05T10:17:17.140Z,38.12
2023-05-05T10:20:21.418Z,38.99
2023-05-05T10:23:25.090Z,38.12
2023-05-05T10:26:28.170Z,41.05
2023-05-05T10:29:42.662Z,39.11
2023-05-05T10:33:03.441Z,40.72
2023-05-05T10:36:12.926Z,39.92
2023-05-05T10:39:17.305Z,40.08
2023-05-05T10:42:20.772Z,39.90
2023-05-05T10:45:23.649Z,39.92
2023-05-05T10:48:43.151Z,38.88
2023-05-05T10:51:51.807Z,37.80
2023-05-05T10:55:15.851Z,38.30
2023-05-05T10:58:47.107Z,38.13
2023-05-05T11:01:58.512Z,38.53
2023-05-05T11:05:15.262Z,37.79
2023-05-05T11:08:27.892Z,39.88
2023-05-05T11:12:04.228Z,38.66
2023-05-05T11:15:31.636Z,37.00
2023-05-05T11:18:36.568Z,38.38
2023-05-05T11:22:04.713Z,38.32
2023-05-05T11:25:41.034Z,39.19
2023-05-05T11:29:00.338Z,38.23
2023-05-05T11:32:13.326Z,37.76
2023-05-05T11:35:16.481Z,38.85
2023-05-05T11:38:22.292Z,37.38
2023-05-05T11:41:35.426Z,38.43
2023-05-05T11:44:38.032Z,39.22
2023-05-05T11:47:40.887Z,40.04
2023-05-05T11:50:43.307Z,38.83
2023-05-05T11:53:47.708Z,37.09
2023-05-05T11:56:51.434Z,36.86
2023-05-05T11:59:57.163Z,36.40
2023-05-05T12:02:59.940Z,37.65
2023-05-05T12:06:04.244Z,37.58
2023-05-05T12:09:21.123Z,37.17
2023-05-05T12:12:42.487Z,38.59
2023-05-05T12:15:45.113Z,37.93
2023-05-05T12:18:48.101Z,39.64
2023-05-05T12:21:50.636Z,38.73
2023-05-05T12:24:57.893Z,39.86
2023-05-05T12:28:00.350Z,41.11
2023-05-05T12:31:03.930Z,41.71
2023-05-05T12:34:09.895Z,40.03
2023-05-05T12:37:12.740Z,38.07
2023-05-05T12:40:44.237Z,38.22
2023-05-05T12:43:47.930Z,39.85
2023-05-05T12:46:53.139Z,39.67
2023-05-05T12:49:56.265Z,40.90
2023-05-05T12:52:58.699Z,41.58
2023-05-05T12:56:01.389Z,40.33
2023-05-05T12:59:29.255Z,40.76
2023-05-05T13:02:35.522Z,40.43
2023-05-05T13:05:38.003Z,41.44
2023-05-05T13:08:44.066Z,42.06
2023-05-05T13:11:46.537Z,41.52
2023-05-05T13:14:49.367Z,42.08
2023-05-05T13:17:58.451Z,42.09
2023-05-05T13:21:01.212Z,42.73
2023-05-05T13:27:09.860Z,41.37
2023-05-05T13:30:12.697Z,41.91
2023-05-05T13:33:15.417Z,42.17
2023-05-05T13:36:17.966Z,43.26
2023-05-05T13:39:21.082Z,42.68
2023-05-05T13:42:25.031Z,42.00
2023-05-05T13:45:27.822Z,43.83
2023-05-05T13:48:30.256Z,42.78
2023-05-05T13:51:34.973Z,42.57
2023-05-05T13:54:37.810Z,42.66
2023-05-05T13:57:40.500Z,42.67
2023-05-05T14:00:43.215Z,43.20
2023-05-05T14:03:46.145Z,44.97
2023-05-05T14:06:48.653Z,43.63
2023-05-05T16:02:56.246Z,43.78
2023-05-05T16:05:58.703Z,44.36
2023-05-05T16:09:01.474Z,43.66
2023-05-05T16:12:04.361Z,44.29
2023-05-05T16:15:07.844Z,43.99
2023-05-05T16:18:10.814Z,44.74
2023-05-05T16:21:13.708Z,44.54
2023-05-05T16:24:17.095Z,45.70
2023-05-05T16:27:19.928Z,44.47
2023-05-05T16:30:22.996Z,45.26
2023-05-05T16:33:25.866Z,45.52
2023-05-05T16:36:28.605Z,45.82
2023-05-05T16:39:33.207Z,45.81
2023-05-05T16:42:35.563Z,46.01
2023-05-05T16:45:38.389Z,45.44
2023-05-05T16:48:41.281Z,45.46
2023-05-05T16:51:44.478Z,45.50
2023-05-05T16:54:48.408Z,45.81
2023-05-05T16:57:51.178Z,46.08
2023-05-05T17:00:54.009Z,46.12
2023-05-05T17:03:58.048Z,46.33
2023-05-05T17:07:00.534Z,46.84
2023-05-05T17:10:03.281Z,47.09
2023-05-05T17:13:05.748Z,48.17
2023-05-05T17:16:08.598Z,48.17
2023-05-05T17:19:10.974Z,48.08
2023-05-05T17:22:13.838Z,48.86
2023-05-05T17:25:16.267Z,49.03
2023-05-05T17:28:20.361Z,50.88
2023-05-05T17:31:22.813Z,49.43
2023-05-05T17:34:25.765Z,49.87
2023-05-05T17:37:28.673Z,50.25
2023-05-05T17:40:31.324Z,50.47
2023-05-05T17:43:34.114Z,50.66
2023-05-05T17:46:37.633Z,50.75
2023-05-05T17:49:40.452Z,50.69
2023-05-05T17:52:44.128Z,51.02
2023-05-05T17:55:47.176Z,51.15
2023-05-05T17:58:49.632Z,50.93
2023-05-05T18:01:52.281Z,51.11
2023-05-05T18:04:55.349Z,51.38
2023-05-05T18:07:58.430Z,51.34
2023-05-05T18:11:02.112Z,51.87
2023-05-05T18:14:05.069Z,52.27
2023-05-05T18:17:07.906Z,52.67
2023-05-05T18:20:11.265Z,52.91
2023-05-05T18:23:13.990Z,53.54
2023-05-05T18:26:17.631Z,53.88
2023-05-05T18:29:22.102Z,53.82
2023-05-05T18:32:24.943Z,53.92
2023-05-05T18:35:28.228Z,54.22
2023-05-05T18:38:31.833Z,54.72
2023-05-05T18:41:35.902Z,55.49
2023-05-05T18:44:40.415Z,55.54
2023-05-05T18:47:43.369Z,56.25
2023-05-05T18:50:47.082Z,56.29
2023-05-05T18:53:50.206Z,56.25
2023-05-05T18:56:53.081Z,56.05
2023-05-05T18:59:55.836Z,56.39
2023-05-05T19:02:58.777Z,56.07
2023-05-05T19:06:06.191Z,57.36
2023-05-05T19:09:09.298Z,57.94
2023-05-05T19:12:11.854Z,58.62
2023-05-05T19:15:14.893Z,58.69
2023-05-05T19:18:17.534Z,58.92
2023-05-05T19:21:20.401Z,59.24
2023-05-05T19:24:22.892Z,59.70
2023-05-05T19:27:27.445Z,60.01
2023-05-05T19:30:30.786Z,60.87
2023-05-05T19:33:34.377Z,60.94
2023-05-05T19:36:36.827Z,61.06
2023-05-05T19:39:40.157Z,60.43
2023-05-05T19:42:44.066Z,62.42
2023-05-05T19:45:48.106Z,62.11
2023-05-05T19:48:51.198Z,62.17
2023-05-05T19:51:55.310Z,62.70
2023-05-05T19:54:59.072Z,63.49
2023-05-05T19:58:01.801Z,64.23
2023-05-05T20:01:04.244Z,64.16
2023-05-05T20:04:07.720Z,64.53
2023-05-05T20:07:10.332Z,65.20
2023-05-05T20:10:16.927Z,64.83
2023-05-05T20:13:20.127Z,65.79
2023-05-05T20:16:23.016Z,66.06
2023-05-05T20:19:25.473Z,66.50
2023-05-05T20:22:28.278Z,67.60
2023-05-05T20:25:30.924Z,67.69
2023-05-05T20:28:34.455Z,67.71
2023-05-05T20:31:39.159Z,67.31
2023-05-05T20:34:41.933Z,67.26
2023-05-05T20:38:11.117Z,67.54
2023-05-05T20:41:33.453Z,66.96
2023-05-05T20:45:58.572Z,66.86
2023-05-05T20:54:00.002Z,67.21
2023-05-05T21:02:00.947Z,67.97
2023-05-05T21:10:25.576Z,68.64
2023-05-05T21:13:29.260Z,68.13
2023-05-05T21:17:16.762Z,68.22
2023-05-05T21:20:43.514Z,68.68
2023-05-05T21:23:48.145Z,69.06
2023-05-05T21:27:03.166Z,68.99
2023-05-05T21:30:35.753Z,67.83
2023-05-05T21:34:02.648Z,69.09
2023-05-05T21:41:13.090Z,69.61
2023-05-05T21:45:00.232Z,70.02
2023-05-05T21:48:06.791Z,69.84
2023-05-05T21:51:34.880Z,70.22
2023-05-05T21:54:37.916Z,70.58
2023-05-05T21:57:59.018Z,70.56
2023-05-05T22:01:02.493Z,70.32
2023-05-05T22:04:05.770Z,71.33
2023-05-05T22:10:49.301Z,70.99
2023-05-05T22:13:52.244Z,71.32
2023-05-05T22:16:56.923Z,72.07
2023-05-05T22:23:41.709Z,73.06
2023-05-05T22:26:44.185Z,73.25
2023-05-05T22:29:47.157Z,73.54
2023-05-05T22:32:49.799Z,72.41
2023-05-05T22:35:53.652Z,72.25
2023-05-05T22:38:56.460Z,72.00
2023-05-05T22:41:59.102Z,71.63
2023-05-05T22:45:01.569Z,70.37
2023-05-05T22:48:04.734Z,69.67
2023-05-05T22:51:07.780Z,67.92
2023-05-05T22:54:10.896Z,66.56
2023-05-05T22:57:13.368Z,66.03
2023-05-05T23:00:16.171Z,64.93
2023-05-05T23:03:18.699Z,63.20
2023-05-05T23:06:21.407Z,62.67
2023-05-05T23:09:23.995Z,62.24
2023-05-05T23:12:26.703Z,60.75
2023-05-05T23:15:29.113Z,60.20
2023-05-05T23:18:32.072Z,59.89
2023-05-05T23:21:52.033Z,59.33
2023-05-05T23:24:55.380Z,59.64
2023-05-05T23:27:59.245Z,58.43
2023-05-05T23:31:02.190Z,57.84
2023-05-05T23:34:04.689Z,57.20
2023-05-05T23:37:07.284Z,57.13
2023-05-05T23:40:09.969Z,57.79
2023-05-05T23:43:13.080Z,56.79
2023-05-05T23:46:15.840Z,55.47
2023-05-05T23:49:18.765Z,55.21
2023-05-05T23:52:21.204Z,55.51
2023-05-05T23:55:24.087Z,55.08
2023-05-05T23:58:26.885Z,54.29
